Time;durP1;ratioP1;P1;durP2;ratioP2;P2;SDS_P1;SDS_P2;PMS_P1;PMS_P2;Temp;Humidity;BMP_temperature;BMP_pressure;BME280_temperature;BME280_humidity;BME280_pressure;Samples;Min_cycle;Max_cycle;Signal;HPM_P1;HPM_P2
2024/04/11 00:01:12;;;;;;;4.20;3.80;;;;;;;-144.56;100.00;-69048.50;5493505;26;20290;-90
2024/04/11 00:03:41;;;;;;;5.57;3.73;;;;;;;-144.56;100.00;-69048.50;5522837;25;20227;-89
2024/04/11 00:06:07;;;;;;;4.03;3.57;;;;;;;-144.56;100.00;-69048.50;5528856;25;20254;-89
2024/04/11 00:08:35;;;;;;;5.13;3.83;;;;;;;-144.56;100.00;-69048.50;5532371;25;20228;-90
2024/04/11 00:11:01;;;;;;;6.03;4.23;;;;;;;-144.56;100.00;-69048.50;5529671;25;20728;-90
2024/04/11 00:13:29;;;;;;;5.33;4.40;;;;;;;-144.56;100.00;-69048.50;5499603;26;20232;-90
2024/04/11 00:15:58;;;;;;;6.00;3.50;;;;;;;-144.56;100.00;-69048.50;5529051;25;20224;-89
2024/04/11 00:18:28;;;;;;;4.67;3.07;;;;;;;-144.56;100.00;-69048.50;5516765;25;20231;-90
2024/04/11 00:20:54;;;;;;;6.67;4.20;;;;;;;-144.56;100.00;-69048.50;5529228;25;20310;-90
2024/04/11 00:23:24;;;;;;;3.60;3.30;;;;;;;-144.56;100.00;-69048.50;5531218;25;20232;-90
2024/04/11 00:25:55;;;;;;;4.03;3.63;;;;;;;-144.56;100.00;-69048.50;5529001;25;20235;-90
2024/04/11 00:28:25;;;;;;;4.63;3.87;;;;;;;-144.56;100.00;-69048.50;5517840;25;20243;-90
2024/04/11 00:30:51;;;;;;;6.97;4.40;;;;;;;-144.56;100.00;-69048.50;5528545;25;20283;-89
2024/04/11 00:33:22;;;;;;;5.93;4.20;;;;;;;-144.56;100.00;-69048.50;5531087;25;20643;-89
2024/04/11 00:35:49;;;;;;;6.67;4.27;;;;;;;-144.56;100.00;-69048.50;5528481;25;20277;-89
2024/04/11 00:38:19;;;;;;;3.77;3.47;;;;;;;-144.56;100.00;-69048.50;5510311;25;20240;-89
2024/04/11 00:40:55;;;;;;;4.27;3.70;;;;;;;-144.56;100.00;-69048.50;5499578;26;20353;-89
2024/04/11 00:43:23;;;;;;;4.20;3.80;;;;;;;-144.56;100.00;-69048.50;5517284;25;20231;-89
2024/04/11 00:45:50;;;;;;;4.73;4.23;;;;;;;-144.56;100.00;-69048.50;5502658;26;20355;-89
2024/04/11 00:48:22;;;;;;;5.43;4.10;;;;;;;-144.56;100.00;-69048.50;5530707;25;20786;-89
2024/04/11 00:50:50;;;;;;;6.57;3.93;;;;;;;-144.56;100.00;-69048.50;5528768;25;20231;-89
2024/04/11 00:53:19;;;;;;;5.37;3.80;;;;;;;-144.56;100.00;-69048.50;5530917;25;20228;-89
2024/04/11 00:55:45;;;;;;;9.63;5.27;;;;;;;-144.56;100.00;-69048.50;5507776;25;20229;-89
2024/04/11 00:58:14;;;;;;;3.87;3.00;;;;;;;-144.56;100.00;-69048.50;5494432;26;20259;-89
2024/04/11 01:00:41;;;;;;;3.47;3.17;;;;;;;-144.56;100.00;-69048.50;5522928;25;20262;-89
2024/04/11 01:03:10;;;;;;;3.80;2.50;;;;;;;-144.56;100.00;-69048.50;5500298;25;20231;-89
2024/04/11 01:05:38;;;;;;;3.17;2.30;;;;;;;-144.56;100.00;-69048.50;5527499;25;20703;-89
2024/04/11 01:08:09;;;;;;;4.27;2.53;;;;;;;-144.56;100.00;-69048.50;5497390;25;20229;-89
2024/04/11 01:10:37;;;;;;;2.80;2.53;;;;;;;-144.56;100.00;-69048.50;5527945;25;20227;-89
2024/04/11 01:13:06;;;;;;;4.97;2.90;;;;;;;-144.56;100.00;-69048.50;5516111;25;20778;-89
2024/04/11 01:15:34;;;;;;;4.40;2.90;;;;;;;-144.56;100.00;-69048.50;5491723;26;20272;-89
2024/04/11 01:18:02;;;;;;;3.23;2.80;;;;;;;-144.56;100.00;-69048.50;5523050;25;20235;-88
2024/04/11 01:20:28;;;;;;;3.20;2.90;;;;;;;-144.56;100.00;-69048.50;5527273;25;20220;-89
2024/04/11 01:22:59;;;;;;;3.47;3.17;;;;;;;-144.56;100.00;-69048.50;5530960;25;20286;-89
2024/04/11 01:25:29;;;;;;;3.50;3.20;;;;;;;-144.56;100.00;-69048.50;5497237;25;20229;-89
2024/04/11 01:27:59;;;;;;;5.37;3.33;;;;;;;-144.56;100.00;-69048.50;5530502;25;20231;-89
2024/04/11 01:30:28;;;;;;;5.47;3.13;;;;;;;-144.56;100.00;-69048.50;5528491;25;20223;-89
2024/04/11 01:33:00;;;;;;;3.20;2.83;;;;;;;-144.56;100.00;-69048.50;5507207;25;20594;-89
2024/04/11 01:35:30;;;;;;;6.10;3.03;;;;;;;-144.56;100.00;-69048.50;5520818;25;20327;-89
2024/04/11 01:37:59;;;;;;;3.10;2.80;;;;;;;-144.56;100.00;-69048.50;5527572;25;20304;-89
2024/04/11 01:40:29;;;;;;;4.37;3.30;;;;;;;-144.56;100.00;-69048.50;5530912;25;20715;-89
2024/04/11 01:42:55;;;;;;;3.43;3.13;;;;;;;-144.56;100.00;-69048.50;5528568;25;20324;-91
2024/04/11 01:45:24;;;;;;;4.50;4.10;;;;;;;-144.56;100.00;-69048.50;5531036;25;20248;-96
2024/04/11 01:47:50;;;;;;;3.83;2.70;;;;;;;-144.56;100.00;-69048.50;5528701;26;20733;-96
2024/04/11 01:50:19;;;;;;;6.77;4.33;;;;;;;-144.56;100.00;-69048.50;5498657;25;20221;-96
2024/04/11 01:52:44;;;;;;;4.60;4.20;;;;;;;-144.56;100.00;-69048.50;5492276;26;20232;-96
2024/04/11 01:55:16;;;;;;;4.77;2.93;;;;;;;-144.56;100.00;-69048.50;5523423;25;20271;-96
2024/04/11 01:57:43;;;;;;;3.20;2.77;;;;;;;-144.56;100.00;-69048.50;5530176;25;20266;-96
2024/04/11 02:00:13;;;;;;;3.17;2.87;;;;;;;-144.56;100.00;-69048.50;5532474;25;20269;-94
2024/04/11 02:02:41;;;;;;;3.13;2.83;;;;;;;-144.56;100.00;-69048.50;5528139;25;20267;-93
2024/04/11 02:05:09;;;;;;;2.70;2.40;;;;;;;-144.56;100.00;-69048.50;5531421;25;20222;-94
2024/04/11 02:07:35;;;;;;;3.90;3.20;;;;;;;-144.56;100.00;-69048.50;5527411;25;20231;-93
2024/04/11 02:10:05;;;;;;;4.80;3.20;;;;;;;-144.56;100.00;-69048.50;5530344;25;20261;-93
2024/04/11 02:12:33;;;;;;;3.60;3.27;;;;;;;-144.56;100.00;-69048.50;5504307;25;20280;-93
2024/04/11 02:15:06;;;;;;;4.03;2.70;;;;;;;-144.56;100.00;-69048.50;5508374;25;20227;-92
2024/04/11 02:17:33;;;;;;;4.30;3.33;;;;;;;-144.56;100.00;-69048.50;5519612;25;20229;-94
2024/04/11 02:20:10;;;;;;;4.07;2.83;;;;;;;-144.56;100.00;-69048.50;5493468;26;20235;-87
2024/04/11 02:22:36;;;;;;;2.70;2.50;;;;;;;-144.56;100.00;-69048.50;5510852;25;20717;-87
2024/04/11 02:25:05;;;;;;;2.93;2.70;;;;;;;-144.56;100.00;-69048.50;5528709;25;20277;-87
2024/04/11 02:27:34;;;;;;;5.47;2.57;;;;;;;-144.56;100.00;-69048.50;5526197;26;20239;-90
2024/04/11 02:30:02;;;;;;;6.03;3.03;;;;;;;-144.56;100.00;-69048.50;5530204;25;20276;-89
2024/04/11 02:32:29;;;;;;;6.07;2.80;;;;;;;-144.56;100.00;-69048.50;5524936;25;20287;-89
2024/04/11 02:34:57;;;;;;;4.13;2.83;;;;;;;-144.56;100.00;-69048.50;5529812;25;20240;-90
2024/04/11 02:37:23;;;;;;;10.47;6.57;;;;;;;-144.56;100.00;-69048.50;5526414;25;20326;-87
2024/04/11 02:39:52;;;;;;;8.87;6.03;;;;;;;-144.56;100.00;-69048.50;5529239;25;20231;-89
2024/04/11 02:42:17;;;;;;;5.03;4.10;;;;;;;-144.56;100.00;-69048.50;5526374;25;20231;-90
2024/04/11 02:44:51;;;;;;;5.07;3.53;;;;;;;-144.56;100.00;-69048.50;5527540;25;20262;-90
2024/04/11 02:47:16;;;;;;;4.63;3.10;;;;;;;-144.56;100.00;-69048.50;5526779;25;20216;-90
2024/04/11 02:49:45;;;;;;;3.63;3.27;;;;;;;-144.56;100.00;-69048.50;5529762;25;20339;-90
2024/04/11 02:52:13;;;;;;;5.27;3.13;;;;;;;-144.56;100.00;-69048.50;5526838;25;20236;-89
2024/04/11 02:54:42;;;;;;;4.17;3.43;;;;;;;-144.56;100.00;-69048.50;5528536;25;20270;-90
2024/04/11 02:57:08;;;;;;;5.00;4.50;;;;;;;-144.56;100.00;-69048.50;5527199;25;20231;-89
2024/04/11 02:59:37;;;;;;;4.83;4.40;;;;;;;-144.56;100.00;-69048.50;5525364;25;20344;-89
2024/04/11 03:02:05;;;;;;;3.60;3.17;;;;;;;-144.56;100.00;-69048.50;5514780;26;20232;-90
2024/04/11 03:04:34;;;;;;;5.33;3.43;;;;;;;-144.56;100.00;-69048.50;5529313;25;20258;-89
2024/04/11 03:06:59;;;;;;;6.30;4.90;;;;;;;-144.56;100.00;-69048.50;5526327;25;20235;-90
2024/04/11 03:09:28;;;;;;;4.17;3.60;;;;;;;-144.56;100.00;-69048.50;5529196;25;20223;-89
2024/04/11 03:11:54;;;;;;;4.47;4.07;;;;;;;-144.56;100.00;-69048.50;5511303;25;20236;-89
2024/04/11 03:14:23;;;;;;;4.30;3.77;;;;;;;-144.56;100.00;-69048.50;5492131;26;20300;-89
2024/04/11 03:16:52;;;;;;;5.23;3.37;;;;;;;-144.56;100.00;-69048.50;5489765;26;20225;-89
2024/04/11 03:19:23;;;;;;;5.43;3.37;;;;;;;-144.56;100.00;-69048.50;5527064;25;20229;-89
2024/04/11 03:21:49;;;;;;;6.37;3.07;;;;;;;-144.56;100.00;-69048.50;5498007;25;20757;-87
2024/04/11 03:24:17;;;;;;;4.67;3.67;;;;;;;-144.56;100.00;-69048.50;5521776;25;20235;-87
2024/04/11 03:26:43;;;;;;;5.67;3.37;;;;;;;-144.56;100.00;-69048.50;5511018;26;20231;-88
2024/04/11 03:29:13;;;;;;;7.13;3.43;;;;;;;-144.56;100.00;-69048.50;5530846;25;20262;-88
2024/04/11 03:31:39;;;;;;;3.97;3.57;;;;;;;-144.56;100.00;-69048.50;5513969;25;20301;-88
2024/04/11 03:34:07;;;;;;;3.73;3.40;;;;;;;-144.56;100.00;-69048.50;5501418;26;20227;-88
2024/04/11 03:36:37;;;;;;;6.80;3.73;;;;;;;-144.56;100.00;-69048.50;5479010;26;20232;-88
2024/04/11 03:39:11;;;;;;;4.17;3.77;;;;;;;-144.56;100.00;-69048.50;5464846;26;20229;-88
2024/04/11 03:41:37;;;;;;;8.63;3.80;;;;;;;-144.56;100.00;-69048.50;5493257;26;20289;-87
2024/04/11 03:44:06;;;;;;;6.87;3.73;;;;;;;-144.56;100.00;-69048.50;5531537;25;20262;-89
2024/04/11 03:46:36;;;;;;;4.60;3.63;;;;;;;-144.56;100.00;-69048.50;5528400;25;20280;-88
2024/04/11 03:49:06;;;;;;;5.60;3.60;;;;;;;-144.56;100.00;-69048.50;5505554;26;20234;-88
2024/04/11 03:51:38;;;;;;;7.73;3.63;;;;;;;-144.56;100.00;-69048.50;5505329;25;20252;-88
2024/04/11 03:54:09;;;;;;;5.27;3.40;;;;;;;-144.56;100.00;-69048.50;5524885;25;20263;-88
2024/04/11 03:56:37;;;;;;;4.93;4.30;;;;;;;-144.56;100.00;-69048.50;5495014;26;20221;-88
2024/04/11 03:59:03;;;;;;;5.00;3.57;;;;;;;-144.56;100.00;-69048.50;5506470;25;20275;-88
2024/04/11 04:01:32;;;;;;;4.73;3.23;;;;;;;-144.56;100.00;-69048.50;5530859;25;20290;-88
2024/04/11 04:04:02;;;;;;;3.70;3.40;;;;;;;-144.56;100.00;-69048.50;5528802;25;20228;-88
2024/04/11 04:06:33;;;;;;;3.20;2.90;;;;;;;-144.56;100.00;-69048.50;5531313;25;20355;-96
2024/04/11 04:09:00;;;;;;;4.57;3.63;;;;;;;-144.56;100.00;-69048.50;5529520;25;20228;-88
2024/04/11 04:11:31;;;;;;;8.03;6.03;;;;;;;-144.56;100.00;-69048.50;5531557;25;20806;-89
2024/04/11 04:13:57;;;;;;;6.87;4.97;;;;;;;-144.56;100.00;-69048.50;5488269;25;20526;-84
2024/04/11 04:16:26;;;;;;;10.47;5.00;;;;;;;-144.56;100.00;-69048.50;5531205;25;20768;-86
2024/04/11 04:18:52;;;;;;;5.33;4.77;;;;;;;-144.56;100.00;-69048.50;5528489;25;20227;-89
2024/04/11 04:21:26;;;;;;;6.80;4.13;;;;;;;-144.56;100.00;-69048.50;5531310;25;20259;-87
2024/04/11 04:23:55;;;;;;;5.40;3.53;;;;;;;-144.56;100.00;-69048.50;5528615;25;20231;-87
2024/04/11 04:26:26;;;;;;;4.77;3.87;;;;;;;-144.56;100.00;-69048.50;5530793;25;20706;-86
2024/04/11 04:28:54;;;;;;;6.63;3.40;;;;;;;-144.56;100.00;-69048.50;5511594;25;20280;-87
2024/04/11 04:31:25;;;;;;;30.20;27.87;;;;;;;-144.56;100.00;-69048.50;5514929;25;20228;-86
2024/04/11 04:33:52;;;;;;;18.57;16.77;;;;;;;-144.56;100.00;-69048.50;5528630;25;20240;-86
2024/04/11 04:36:24;;;;;;;5.47;5.00;;;;;;;-144.56;100.00;-69048.50;5530059;25;20288;-86
2024/04/11 04:38:50;;;;;;;4.77;4.33;;;;;;;-144.56;100.00;-69048.50;5505341;25;20235;-85
2024/04/11 04:41:18;;;;;;;6.33;4.20;;;;;;;-144.56;100.00;-69048.50;5523167;25;20231;-86
2024/04/11 04:43:51;;;;;;;4.20;3.80;;;;;;;-144.56;100.00;-69048.50;5528911;25;20340;-86
2024/04/11 04:46:23;;;;;;;4.87;4.43;;;;;;;-144.56;100.00;-69048.50;5527995;25;20642;-86
2024/04/11 04:48:49;;;;;;;5.67;3.53;;;;;;;-144.56;100.00;-69048.50;5525738;25;20230;-86
2024/04/11 04:51:18;;;;;;;4.70;3.70;;;;;;;-144.56;100.00;-69048.50;5529159;25;20235;-86
2024/04/11 04:53:44;;;;;;;5.90;3.70;;;;;;;-144.56;100.00;-69048.50;5526448;25;20228;-86
2024/04/11 04:56:13;;;;;;;3.83;3.53;;;;;;;-144.56;100.00;-69048.50;5529134;25;20643;-85
2024/04/11 04:58:39;;;;;;;5.73;3.90;;;;;;;-144.56;100.00;-69048.50;5526570;25;20570;-85
2024/04/11 05:01:08;;;;;;;4.43;3.83;;;;;;;-144.56;100.00;-69048.50;5529907;25;20224;-85
2024/04/11 05:03:38;;;;;;;7.87;3.63;;;;;;;-144.56;100.00;-69048.50;5527410;25;20231;-86
2024/04/11 05:06:07;;;;;;;3.73;3.40;;;;;;;-144.56;100.00;-69048.50;5529216;25;20351;-86
2024/04/11 05:08:35;;;;;;;4.87;3.60;;;;;;;-144.56;100.00;-69048.50;5527331;25;20228;-86
2024/04/11 05:11:10;;;;;;;4.37;3.97;;;;;;;-144.56;100.00;-69048.50;5529057;25;20232;-86
2024/04/11 05:13:37;;;;;;;4.70;2.87;;;;;;;-144.56;100.00;-69048.50;5527297;25;20274;-86
2024/04/11 05:16:07;;;;;;;3.13;2.83;;;;;;;-144.56;100.00;-69048.50;5529624;25;20715;-86
2024/04/11 05:18:37;;;;;;;6.30;2.93;;;;;;;-144.56;100.00;-69048.50;5526453;25;20262;-86
2024/04/11 05:21:07;;;;;;;4.27;2.80;;;;;;;-144.56;100.00;-69048.50;5530014;26;20274;-85
2024/04/11 05:23:38;;;;;;;5.13;2.30;;;;;;;-144.56;100.00;-69048.50;5526582;25;20266;-86
2024/04/11 05:26:14;;;;;;;4.83;2.60;;;;;;;-144.56;100.00;-69048.50;5529403;25;20231;-86
2024/04/11 05:28:44;;;;;;;4.80;2.60;;;;;;;-144.56;100.00;-69048.50;5526015;25;20259;-85
2024/04/11 05:31:14;;;;;;;2.77;2.50;;;;;;;-144.56;100.00;-69048.50;5526632;25;20234;-85
2024/04/11 05:33:47;;;;;;;4.10;2.43;;;;;;;-144.56;100.00;-69048.50;5529644;25;20253;-86
2024/04/11 05:36:17;;;;;;;5.43;2.50;;;;;;;-144.56;100.00;-69048.50;5526575;25;20281;-86
2024/04/11 05:38:48;;;;;;;2.60;2.40;;;;;;;-144.56;100.00;-69048.50;5529082;25;20228;-85
2024/04/11 05:41:14;;;;;;;3.67;2.27;;;;;;;-144.56;100.00;-69048.50;5526011;25;20262;-85
2024/04/11 05:43:47;;;;;;;2.80;2.27;;;;;;;-144.56;100.00;-69048.50;5515690;25;20236;-86
2024/04/11 05:46:14;;;;;;;5.17;3.17;;;;;;;-144.56;100.00;-69048.50;5516559;25;20691;-85
2024/04/11 05:48:45;;;;;;;4.43;2.67;;;;;;;-144.56;100.00;-69048.50;5529257;25;20233;-85
2024/04/11 05:51:11;;;;;;;2.63;2.27;;;;;;;-144.56;100.00;-69048.50;5526540;25;20224;-85
2024/04/11 05:53:41;;;;;;;4.37;2.17;;;;;;;-144.56;100.00;-69048.50;5529371;25;20621;-85
2024/04/11 05:56:08;;;;;;;4.43;2.87;;;;;;;-144.56;100.00;-69048.50;5526541;25;20236;-85
2024/04/11 05:58:41;;;;;;;2.50;2.20;;;;;;;-144.56;100.00;-69048.50;5528132;25;20241;-85
2024/04/11 06:01:09;;;;;;;4.93;2.50;;;;;;;-144.56;100.00;-69048.50;5526419;25;20224;-85
2024/04/11 06:03:40;;;;;;;3.67;2.53;;;;;;;-144.56;100.00;-69048.50;5509838;26;20237;-85
2024/04/11 06:06:10;;;;;;;2.27;2.03;;;;;;;-144.56;100.00;-69048.50;5521626;25;20224;-85
2024/04/11 06:08:39;;;;;;;7.20;2.53;;;;;;;-144.56;100.00;-69048.50;5507805;25;20282;-85
2024/04/11 06:11:06;;;;;;;2.50;2.30;;;;;;;-144.56;100.00;-69048.50;5523944;25;20229;-85
2024/04/11 06:13:34;;;;;;;6.00;3.20;;;;;;;-144.56;100.00;-69048.50;5528641;25;20234;-85
2024/04/11 06:16:01;;;;;;;2.83;2.60;;;;;;;-144.56;100.00;-69048.50;5525824;25;20237;-85
2024/04/11 06:18:29;;;;;;;3.70;2.43;;;;;;;-144.56;100.00;-69048.50;5529199;25;20257;-85
2024/04/11 06:20:55;;;;;;;4.27;2.43;;;;;;;-144.56;100.00;-69048.50;5525155;25;20226;-85
2024/04/11 06:23:26;;;;;;;3.87;2.80;;;;;;;-144.56;100.00;-69048.50;5505117;25;20277;-85
2024/04/11 06:25:53;;;;;;;2.80;2.50;;;;;;;-144.56;100.00;-69048.50;5478778;25;20582;-85
2024/04/11 06:28:21;;;;;;;2.67;2.43;;;;;;;-144.56;100.00;-69048.50;5527368;25;20246;-85
2024/04/11 06:30:49;;;;;;;3.20;2.90;;;;;;;-144.56;100.00;-69048.50;5503177;25;20230;-85
2024/04/11 06:33:18;;;;;;;3.03;2.60;;;;;;;-144.56;100.00;-69048.50;5528020;25;20259;-85
2024/04/11 06:35:46;;;;;;;3.13;2.87;;;;;;;-144.56;100.00;-69048.50;5525750;25;20290;-85
2024/04/11 06:38:15;;;;;;;2.97;2.60;;;;;;;-144.56;100.00;-69048.50;5528353;25;20228;-85
2024/04/11 06:40:44;;;;;;;3.17;2.93;;;;;;;-144.56;100.00;-69048.50;5525545;25;20274;-84
2024/04/11 06:43:16;;;;;;;4.37;2.83;;;;;;;-144.56;100.00;-69048.50;5528847;25;20727;-85
2024/04/11 06:45:43;;;;;;;5.47;2.77;;;;;;;-144.56;100.00;-69048.50;5525890;26;20232;-85
2024/04/11 06:48:11;;;;;;;5.63;2.70;;;;;;;-144.56;100.00;-69048.50;5527434;25;20224;-84
2024/04/11 06:50:38;;;;;;;5.53;2.93;;;;;;;-144.56;100.00;-69048.50;5525304;25;20235;-84
2024/04/11 06:53:08;;;;;;;4.03;2.70;;;;;;;-144.56;100.00;-69048.50;5495122;26;20232;-84
2024/04/11 06:55:34;;;;;;;3.27;2.83;;;;;;;-144.56;100.00;-69048.50;5510727;25;20236;-85
2024/04/11 06:58:06;;;;;;;3.07;2.77;;;;;;;-144.56;100.00;-69048.50;5527521;25;20231;-83
2024/04/11 07:00:36;;;;;;;5.53;2.87;;;;;;;-144.56;100.00;-69048.50;5502209;25;20228;-84
2024/04/11 07:03:13;;;;;;;4.13;2.70;;;;;;;-144.56;100.00;-69048.50;5526903;25;20266;-84
2024/04/11 07:05:51;;;;;;;3.70;2.50;;;;;;;-144.56;100.00;-69048.50;5499546;25;20233;-84
2024/04/11 07:08:25;;;;;;;4.33;2.80;;;;;;;-144.56;100.00;-69048.50;5528138;25;20575;-84
2024/04/11 07:10:53;;;;;;;4.33;2.80;;;;;;;-144.56;100.00;-69048.50;5524399;25;20224;-84
2024/04/11 07:13:25;;;;;;;7.13;3.30;;;;;;;-144.56;100.00;-69048.50;5525725;25;20303;-84
2024/04/11 07:15:52;;;;;;;6.20;2.90;;;;;;;-144.56;100.00;-69048.50;5524852;25;20227;-84
2024/04/11 07:18:22;;;;;;;6.30;2.87;;;;;;;-144.56;100.00;-69048.50;5527964;25;20335;-84
2024/04/11 07:20:50;;;;;;;4.37;2.80;;;;;;;-144.56;100.00;-69048.50;5524197;25;20223;-84
2024/04/11 07:23:19;;;;;;;4.93;2.80;;;;;;;-144.56;100.00;-69048.50;5527482;25;20223;-84
2024/04/11 07:25:45;;;;;;;3.50;2.80;;;;;;;-144.56;100.00;-69048.50;5524136;25;20769;-84
2024/04/11 07:28:15;;;;;;;5.70;3.10;;;;;;;-144.56;100.00;-69048.50;5527282;25;20232;-84
2024/04/11 07:30:43;;;;;;;4.10;2.77;;;;;;;-144.56;100.00;-69048.50;5524778;25;20326;-84
2024/04/11 07:33:12;;;;;;;9.43;3.33;;;;;;;-144.56;100.00;-69048.50;5503736;25;20316;-84
2024/04/11 07:35:39;;;;;;;5.93;3.03;;;;;;;-144.56;100.00;-69048.50;5524279;25;20223;-84
2024/04/11 07:38:08;;;;;;;2.47;2.27;;;;;;;-144.56;100.00;-69048.50;5527719;25;20736;-84
2024/04/11 07:40:45;;;;;;;2.77;2.57;;;;;;;-144.56;100.00;-69048.50;5524222;25;20232;-84
2024/04/11 07:43:14;;;;;;;6.63;3.27;;;;;;;-144.56;100.00;-69048.50;5526419;25;20231;-84
2024/04/11 07:45:44;;;;;;;3.07;2.23;;;;;;;-144.56;100.00;-69048.50;5524908;25;20303;-84
2024/04/11 07:48:16;;;;;;;4.00;2.53;;;;;;;-144.56;100.00;-69048.50;5524352;25;20240;-84
2024/04/11 07:50:44;;;;;;;4.13;3.30;;;;;;;-144.56;100.00;-69048.50;5526823;25;20235;-84
2024/04/11 07:53:14;;;;;;;3.00;2.70;;;;;;;-144.56;100.00;-69048.50;5524548;25;20219;-84
2024/04/11 07:55:44;;;;;;;4.53;2.63;;;;;;;-144.56;100.00;-69048.50;5526880;25;20232;-83
2024/04/11 07:58:10;;;;;;;3.93;2.90;;;;;;;-144.56;100.00;-69048.50;5524762;25;20642;-84
2024/04/11 08:00:47;;;;;;;3.20;2.80;;;;;;;-144.56;100.00;-69048.50;5526533;25;20227;-84
2024/04/11 08:03:17;;;;;;;5.83;2.60;;;;;;;-144.56;100.00;-69048.50;5524485;25;20290;-84
2024/04/11 08:05:46;;;;;;;3.63;2.50;;;;;;;-144.56;100.00;-69048.50;5526430;25;20235;-84
2024/04/11 08:08:12;;;;;;;6.43;2.43;;;;;;;-144.56;100.00;-69048.50;5524304;25;20267;-84
2024/04/11 08:10:42;;;;;;;3.67;2.30;;;;;;;-144.56;100.00;-69048.50;5526097;25;20777;-83
2024/04/11 08:13:08;;;;;;;6.37;3.53;;;;;;;-144.56;100.00;-69048.50;5524127;25;20352;-83
2024/04/11 08:15:36;;;;;;;4.47;2.57;;;;;;;-144.56;100.00;-69048.50;5528402;25;20732;-83
2024/04/11 08:18:03;;;;;;;3.97;2.60;;;;;;;-144.56;100.00;-69048.50;5528270;25;20722;-83
2024/04/11 08:20:34;;;;;;;2.83;2.50;;;;;;;-144.56;100.00;-69048.50;5530555;25;20337;-83
2024/04/11 08:23:01;;;;;;;3.57;2.70;;;;;;;-144.56;100.00;-69048.50;5527850;25;20236;-83
2024/04/11 08:25:29;;;;;;;4.10;2.13;;;;;;;-144.56;100.00;-69048.50;5529999;25;20274;-83
2024/04/11 08:27:56;;;;;;;2.50;2.33;;;;;;;-144.56;100.00;-69048.50;5527404;25;20747;-83
2024/04/11 08:30:25;;;;;;;8.10;2.60;;;;;;;-144.56;100.00;-69048.50;5522623;25;20229;-84
2024/04/11 08:32:51;;;;;;;7.23;6.63;;;;;;;-144.56;100.00;-69048.50;5510491;25;20232;-83
2024/04/11 08:35:20;;;;;;;5.87;2.70;;;;;;;-144.56;100.00;-69048.50;5529382;25;20278;-83
2024/04/11 08:37:51;;;;;;;8.33;2.50;;;;;;;-144.56;100.00;-69048.50;5528306;25;20227;-83
2024/04/11 08:40:20;;;;;;;5.17;2.50;;;;;;;-144.56;100.00;-69048.50;5529972;25;20223;-84
2024/04/11 08:42:47;;;;;;;7.13;2.37;;;;;;;-144.56;100.00;-69048.50;5527893;25;20289;-83
2024/04/11 08:45:16;;;;;;;3.77;2.60;;;;;;;-144.56;100.00;-69048.50;5529308;25;20235;-83
2024/04/11 08:47:45;;;;;;;4.20;2.40;;;;;;;-144.56;100.00;-69048.50;5503277;25;20720;-83
2024/04/11 08:50:14;;;;;;;4.13;2.83;;;;;;;-144.56;100.00;-69048.50;5481980;25;20722;-83
2024/04/11 08:52:44;;;;;;;3.30;3.00;;;;;;;-144.56;100.00;-69048.50;5527105;25;20274;-84
2024/04/11 08:55:17;;;;;;;4.50;2.30;;;;;;;-144.56;100.00;-69048.50;5530067;25;20286;-84
2024/04/11 08:57:43;;;;;;;4.20;2.80;;;;;;;-144.56;100.00;-69048.50;5526612;25;20235;-83
2024/04/11 09:00:13;;;;;;;7.60;3.23;;;;;;;-144.56;100.00;-69048.50;5529687;25;20269;-83
2024/04/11 09:02:41;;;;;;;6.97;3.00;;;;;;;-144.56;100.00;-69048.50;5527320;25;20227;-82
2024/04/11 09:05:10;;;;;;;4.00;2.30;;;;;;;-144.56;100.00;-69048.50;5529846;25;20262;-84
2024/04/11 09:07:36;;;;;;;2.80;2.60;;;;;;;-144.56;100.00;-69048.50;5526623;25;20232;-83
2024/04/11 09:10:07;;;;;;;5.30;2.97;;;;;;;-144.56;100.00;-69048.50;5530070;25;20235;-83
2024/04/11 09:12:35;;;;;;;4.80;3.00;;;;;;;-144.56;100.00;-69048.50;5526465;25;20334;-83
2024/04/11 09:15:09;;;;;;;3.60;2.93;;;;;;;-144.56;100.00;-69048.50;5529311;25;20240;-83
2024/04/11 09:17:39;;;;;;;8.57;2.50;;;;;;;-144.56;100.00;-69048.50;5526686;25;20227;-83
2024/04/11 09:20:12;;;;;;;3.63;3.07;;;;;;;-144.56;100.00;-69048.50;5529833;25;20327;-83
2024/04/11 09:22:46;;;;;;;3.70;2.65;;;;;;;-144.56;100.00;-69048.50;5478969;25;20920;-84
2024/04/11 09:25:17;;;;;;;3.60;2.60;;;;;;;-144.56;100.00;-69048.50;5528453;25;20757;-83
2024/04/11 09:27:50;;;;;;;4.47;3.07;;;;;;;-144.56;100.00;-69048.50;5527022;25;20250;-83
2024/04/11 09:30:26;;;;;;;4.43;2.53;;;;;;;-144.56;100.00;-69048.50;5528848;25;20292;-83
2024/04/11 09:32:56;;;;;;;3.43;3.13;;;;;;;-144.56;100.00;-69048.50;5527491;25;20227;-83
2024/04/11 09:35:25;;;;;;;4.33;3.53;;;;;;;-144.56;100.00;-69048.50;5528266;25;20734;-82
2024/04/11 09:37:54;;;;;;;4.10;3.20;;;;;;;-144.56;100.00;-69048.50;5526486;25;20599;-82
2024/04/11 09:40:26;;;;;;;4.73;3.23;;;;;;;-144.56;100.00;-69048.50;5528831;25;20324;-83
2024/04/11 09:43:03;;;;;;;5.60;3.20;;;;;;;-144.56;100.00;-69048.50;5526904;25;20232;-83
2024/04/11 09:45:35;;;;;;;3.40;3.10;;;;;;;-144.56;100.00;-69048.50;5486297;26;20274;-83
2024/04/11 09:48:03;;;;;;;4.30;3.90;;;;;;;-144.56;100.00;-69048.50;5526306;25;20270;-82
2024/04/11 09:50:36;;;;;;;4.57;2.85;;;;;;;-144.56;100.00;-69048.50;5528750;25;20228;-83
2024/04/11 09:53:02;;;;;;;5.18;3.28;;;;;;;-144.56;100.00;-69048.50;5526281;25;20742;-83
2024/04/11 09:55:36;;;;;;;5.30;3.03;;;;;;;-144.56;100.00;-69048.50;5528920;25;20235;-83
2024/04/11 09:58:05;;;;;;;4.60;2.90;;;;;;;-144.56;100.00;-69048.50;5525855;25;20291;-82
2024/04/11 10:01:04;;;;;;;4.70;3.13;;;;;;;-144.56;100.00;-69048.50;5528437;25;20244;-83
2024/04/11 10:03:33;;;;;;;3.55;3.25;;;;;;;-144.56;100.00;-69048.50;5526657;25;20236;-82
2024/04/11 10:06:01;;;;;;;3.67;3.10;;;;;;;-144.56;100.00;-69048.50;5525651;25;20667;-82
2024/04/11 10:08:36;;;;;;;4.45;3.03;;;;;;;-144.56;100.00;-69048.50;5528419;25;20293;-83
2024/04/11 10:11:08;;;;;;;4.00;3.20;;;;;;;-144.56;100.00;-69048.50;5526343;25;20278;-83
2024/04/11 10:13:41;;;;;;;6.87;3.40;;;;;;;-144.56;100.00;-69048.50;5528661;25;20228;-83
2024/04/11 10:16:13;;;;;;;4.20;2.97;;;;;;;-144.56;100.00;-69048.50;5526747;25;20239;-82
2024/04/11 10:18:51;;;;;;;8.02;3.13;;;;;;;-144.56;100.00;-69048.50;5528342;25;20235;-83
2024/04/11 10:21:25;;;;;;;3.33;3.03;;;;;;;-144.56;100.00;-69048.50;5526007;25;20227;-83
2024/04/11 10:23:53;;;;;;;4.25;3.45;;;;;;;-144.56;100.00;-69048.50;5527895;25;20278;-83
2024/04/11 10:26:29;;;;;;;6.03;3.47;;;;;;;-144.56;100.00;-69048.50;5526211;25;20223;-82
2024/04/11 10:29:01;;;;;;;3.58;3.15;;;;;;;-144.56;100.00;-69048.50;5528086;25;20295;-82
2024/04/11 10:31:32;;;;;;;3.55;3.25;;;;;;;-144.56;100.00;-69048.50;5525379;25;20354;-82
2024/04/11 10:34:10;;;;;;;5.78;3.30;;;;;;;-144.56;100.00;-69048.50;5527717;25;20239;-82
2024/04/11 10:36:37;;;;;;;4.78;3.75;;;;;;;-144.56;100.00;-69048.50;5525711;25;20227;-82
2024/04/11 10:39:08;;;;;;;4.45;3.45;;;;;;;-144.56;100.00;-69048.50;5513044;26;20229;-83
2024/04/11 10:41:37;;;;;;;3.75;3.45;;;;;;;-144.56;100.00;-69048.50;5517168;25;20266;-83
2024/04/11 10:44:09;;;;;;;7.20;3.65;;;;;;;-144.56;100.00;-69048.50;5527890;25;20315;-83
2024/04/11 10:46:38;;;;;;;3.67;3.38;;;;;;;-144.56;100.00;-69048.50;5526091;25;20300;-82
2024/04/11 10:49:15;;;;;;;3.60;3.25;;;;;;;-144.56;100.00;-69048.50;5528079;25;20239;-82
2024/04/11 10:51:42;;;;;;;3.67;3.38;;;;;;;-144.56;100.00;-69048.50;5524994;25;20239;-83
2024/04/11 10:54:13;;;;;;;3.85;3.50;;;;;;;-144.56;100.00;-69048.50;5528014;25;20278;-82
2024/04/11 10:56:41;;;;;;;9.63;4.28;;;;;;;-144.56;100.00;-69048.50;5525616;25;20228;-82
2024/04/11 10:59:17;;;;;;;12.10;4.45;;;;;;;-144.56;100.00;-69048.50;5528703;25;20232;-82
2024/04/11 11:01:47;;;;;;;6.63;3.58;;;;;;;-144.56;100.00;-69048.50;5483102;25;20780;-82
2024/04/11 11:04:20;;;;;;;19.73;11.70;;;;;;;-144.56;100.00;-69048.50;5526929;25;20638;-83
2024/04/11 11:06:47;;;;;;;5.32;3.95;;;;;;;-144.56;100.00;-69048.50;5526256;25;20235;-82
2024/04/11 11:09:19;;;;;;;3.75;3.42;;;;;;;-144.56;100.00;-69048.50;5527982;25;20266;-83
2024/04/11 11:11:46;;;;;;;7.88;4.13;;;;;;;-144.56;100.00;-69048.50;5525492;25;20709;-82